createdAt,value
2023-02-15T00:01:30.410Z,75.5
2023-02-15T00:03:32.333Z,73.3
2023-02-15T00:05:37.402Z,78.1
2023-02-15T00:07:39.331Z,76.9
2023-02-15T00:09:41.235Z,74.9
2023-02-15T00:11:43.157Z,74.1
2023-02-15T00:13:45.108Z,77.1
2023-02-15T00:15:46.994Z,72.9
2023-02-15T00:17:48.926Z,72.7
2023-02-15T00:19:54.008Z,80.4
2023-02-15T00:21:55.926Z,83.3
2023-02-15T00:23:57.847Z,79.9
2023-02-15T00:25:00.384Z,87.3
2023-02-15T00:27:02.305Z,85.5
2023-02-15T00:29:04.232Z,84.7
2023-02-15T00:31:06.249Z,89.2
2023-02-15T00:33:11.233Z,95.6
2023-02-15T00:35:13.131Z,84.1
2023-02-15T00:37:15.064Z,88.5
2023-02-15T00:39:16.977Z,83.6
2023-02-15T00:43:20.827Z,80.1
2023-02-15T00:47:28.124Z,89.7
2023-02-15T00:49:30.053Z,81.3
2023-02-15T00:51:31.956Z,84
2023-02-15T00:53:33.867Z,81.9
2023-02-15T00:55:35.771Z,84
2023-02-15T00:57:37.713Z,82.1
2023-02-15T01:01:44.675Z,89.9
2023-02-15T01:03:46.586Z,83.8
2023-02-15T01:05:48.542Z,85.8
2023-02-15T01:07:50.444Z,80.9
2023-02-15T01:09:52.365Z,79.4
2023-02-15T01:11:54.276Z,77.5
2023-02-15T01:13:56.186Z,81.3
2023-02-15T01:16:01.611Z,79.4
2023-02-15T01:18:03.152Z,79.3
2023-02-15T01:20:05.049Z,80.7
2023-02-15T01:25:11.420Z,76.3
2023-02-15T01:27:13.319Z,74.9
2023-02-15T01:29:18.415Z,82.4
2023-02-15T01:33:22.790Z,74.6
2023-02-15T01:35:24.697Z,74.9
2023-02-15T01:37:26.617Z,73.3
2023-02-15T01:39:28.500Z,72.1
2023-02-15T01:41:30.425Z,73.4
2023-02-15T01:43:35.490Z,74.2
2023-02-15T01:45:37.390Z,71.5
2023-02-15T01:47:39.301Z,75.6
2023-02-15T01:49:41.194Z,71
2023-02-15T01:51:43.106Z,72
2023-02-15T01:55:46.928Z,71.5
2023-02-15T02:03:57.636Z,68.5
2023-02-15T02:05:59.885Z,70.9
2023-02-15T02:14:10.265Z,71.6
2023-02-15T02:17:14.705Z,70.5
2023-02-15T02:19:16.589Z,67.4
2023-02-15T02:21:18.469Z,70.9
2023-02-15T02:23:20.358Z,60.9
2023-02-15T02:27:27.337Z,66
2023-02-15T02:29:29.220Z,66.2
2023-02-15T02:33:32.999Z,66.5
2023-02-15T02:35:34.884Z,66.3
2023-02-15T02:37:36.862Z,62.6
2023-02-15T02:43:45.624Z,68.2
2023-02-15T02:45:47.532Z,66.5
2023-02-15T02:49:51.341Z,59
2023-02-15T02:51:53.227Z,69.3
2023-02-15T02:53:58.276Z,71.1
2023-02-15T02:56:00.598Z,68.4
2023-02-15T02:58:02.288Z,67.5
2023-02-15T03:00:03.941Z,66.2
2023-02-15T03:02:05.867Z,61.3
2023-02-15T03:04:07.711Z,63.9
2023-02-15T03:08:14.647Z,65.2
2023-02-15T03:10:16.536Z,64.6
2023-02-15T03:14:35.388Z,65.4
2023-02-15T03:16:37.413Z,64.8
2023-02-15T03:18:39.162Z,63.6
2023-02-15T03:20:45.720Z,66.1
2023-02-15T03:22:47.597Z,61.2
2023-02-15T03:24:49.486Z,58.9
2023-02-15T03:26:51.388Z,61
2023-02-15T03:28:53.287Z,57.8
2023-02-15T03:30:55.200Z,58.2
2023-02-15T03:32:57.014Z,60.5
2023-02-15T03:35:02.060Z,63.9
2023-02-15T03:37:03.927Z,61.5
2023-02-15T03:39:05.804Z,60.9
2023-02-15T03:43:09.563Z,60
2023-02-15T03:45:11.423Z,56.7
2023-02-15T03:47:13.303Z,56.1
2023-02-15T03:49:18.334Z,65.3
2023-02-15T03:51:20.214Z,55
2023-02-15T03:53:22.263Z,59.5
2023-02-15T03:55:23.946Z,56.2
2023-02-15T03:57:25.834Z,53.1
2023-02-15T03:59:27.721Z,54.3
2023-02-15T04:03:34.592Z,55.8
2023-02-15T04:05:36.492Z,53.2
2023-02-15T04:07:38.378Z,50.3
2023-02-15T04:08:40.881Z,56.7
2023-02-15T04:12:44.651Z,47.6
2023-02-15T04:20:55.325Z,55.7
2023-02-15T04:24:59.089Z,50.2
2023-02-15T04:27:00.952Z,49.6
2023-02-15T04:29:02.828Z,46.1
2023-02-15T04:31:07.899Z,54.8
2023-02-15T04:33:09.716Z,49.8
2023-02-15T04:35:11.614Z,51
2023-02-15T04:37:13.482Z,48.8
2023-02-15T04:39:15.354Z,52.7
2023-02-15T04:41:17.239Z,47.7
2023-02-15T04:43:19.117Z,48.1
2023-02-15T04:45:24.144Z,52.8
2023-02-15T04:47:26.038Z,52.7
2023-02-15T04:49:27.887Z,50.4
2023-02-15T04:51:29.762Z,49.8
2023-02-15T04:57:35.363Z,49.7
2023-02-15T04:59:40.374Z,54.3
2023-02-15T05:01:42.260Z,51.8
2023-02-15T05:03:44.119Z,51.5
2023-02-15T05:04:46.621Z,52.1
2023-02-15T05:06:48.498Z,54.1
2023-02-15T05:08:50.362Z,48.1
2023-02-15T05:10:52.225Z,51.1
2023-02-15T05:12:57.262Z,52.4
2023-02-15T05:14:59.115Z,52.9
2023-02-15T05:17:00.997Z,51.7
2023-02-15T05:19:02.865Z,49.1
2023-02-15T05:21:04.715Z,51.1
2023-02-15T05:29:15.345Z,52.5
2023-02-15T05:31:17.565Z,50.5
2023-02-15T05:33:19.071Z,50
2023-02-15T05:35:20.955Z,52.9
2023-02-15T05:37:22.805Z,49.2
2023-02-15T05:39:24.668Z,49.9
2023-02-15T05:41:29.690Z,61.2
2023-02-15T05:43:31.599Z,54.2
2023-02-15T05:45:33.458Z,52
2023-02-15T05:47:35.307Z,51.4
2023-02-15T05:49:37.178Z,51.8
2023-02-15T05:51:39.044Z,55.4
2023-02-15T05:53:40.918Z,54.1
2023-02-15T05:55:46.151Z,63.3
2023-02-15T05:57:48.024Z,56.5
2023-02-15T05:59:49.900Z,58.6
2023-02-15T06:04:56.137Z,58.6
2023-02-15T06:06:58.014Z,55
2023-02-15T06:09:03.088Z,56.3
2023-02-15T06:11:04.985Z,55.1
2023-02-15T06:13:06.814Z,53.4
2023-02-15T06:15:08.691Z,53.9
2023-02-15T06:17:10.550Z,56.9
2023-02-15T06:19:12.424Z,52.2
2023-02-15T06:21:14.294Z,55.8
2023-02-15T06:29:24.840Z,59.5
2023-02-15T06:37:35.494Z,64.3
2023-02-15T06:47:44.854Z,56
2023-02-15T06:55:55.563Z,61
2023-02-15T06:58:18.291Z,67.9
2023-02-15T07:00:20.194Z,60.1
2023-02-15T07:02:22.057Z,57.6
2023-02-15T07:04:27.149Z,68.1
2023-02-15T07:06:28.998Z,64.8
2023-02-15T07:08:30.886Z,58.2
2023-02-15T07:12:34.633Z,55.5
2023-02-15T07:14:36.526Z,56.5
2023-02-15T07:16:38.471Z,59.4
2023-02-15T07:18:43.458Z,67
2023-02-15T07:20:45.343Z,64.2
2023-02-15T07:22:47.240Z,66.5
2023-02-15T07:24:49.130Z,63.1
2023-02-15T07:26:51.000Z,62.8
2023-02-15T07:28:52.889Z,66.1
2023-02-15T07:30:54.840Z,64.9
2023-02-15T07:32:59.827Z,72.8
2023-02-15T07:35:01.785Z,72.6
2023-02-15T07:37:03.618Z,68
2023-02-15T07:39:05.539Z,63.7
2023-02-15T07:43:09.316Z,72.6
2023-02-15T07:45:11.226Z,73.8
2023-02-15T07:47:16.302Z,81.3
2023-02-15T07:49:18.186Z,76.3
2023-02-15T07:51:20.082Z,77.4
2023-02-15T07:52:22.602Z,80.5
2023-02-15T07:54:24.502Z,77.2
2023-02-15T07:56:26.431Z,79.6
2023-02-15T07:58:28.345Z,74.6
2023-02-15T08:00:33.413Z,87
2023-02-15T08:02:35.340Z,87.7
2023-02-15T08:04:37.249Z,86.8
2023-02-15T08:06:39.124Z,85.9
2023-02-15T08:08:41.053Z,79.4
2023-02-15T08:10:42.957Z,81.1
2023-02-15T08:12:44.877Z,80.8
2023-02-15T08:14:49.966Z,91.5
2023-02-15T08:16:51.970Z,93
2023-02-15T08:18:53.811Z,86.5
2023-02-15T08:24:59.614Z,89
2023-02-15T08:27:01.549Z,93.5
2023-02-15T08:29:06.651Z,96.9
2023-02-15T08:31:08.612Z,101.6
2023-02-15T08:33:10.496Z,96.6
2023-02-15T08:35:12.442Z,91
2023-02-15T08:37:14.368Z,96.2
2023-02-15T08:39:16.309Z,93.4
2023-02-15T08:41:18.250Z,94.2
2023-02-15T08:43:23.355Z,107.6
2023-02-15T08:45:25.305Z,100.5
2023-02-15T08:47:27.217Z,103.1
2023-02-15T08:48:29.766Z,108.6
2023-02-15T08:50:31.733Z,101.8
2023-02-15T08:52:33.665Z,100.9
2023-02-15T08:54:35.626Z,106.5
2023-02-15T08:56:40.744Z,120.5
2023-02-15T08:58:42.613Z,115.6
2023-02-15T09:00:46.046Z,112.6
2023-02-15T09:02:46.516Z,113.2
2023-02-15T09:04:48.471Z,112.6
2023-02-15T09:06:50.443Z,114.5
2023-02-15T09:08:52.413Z,120.8
2023-02-15T09:10:59.152Z,127.1
2023-02-15T09:13:01.008Z,133.2
2023-02-15T09:15:02.975Z,123.9
2023-02-15T09:17:04.964Z,119.9
2023-02-15T09:19:06.965Z,122.2
2023-02-15T09:21:08.917Z,122.3
2023-02-15T09:23:21.896Z,119.7
2023-02-15T09:25:16.048Z,129.9
2023-02-15T09:29:20.018Z,126.9
2023-02-15T09:37:28.012Z,128.6
2023-02-15T09:39:33.174Z,134.8
2023-02-15T09:41:35.177Z,128.5
2023-02-15T09:43:37.193Z,131.3
2023-02-15T09:44:39.795Z,121.6
2023-02-15T09:46:41.800Z,121.8
2023-02-15T09:48:43.786Z,121.1
2023-02-15T09:50:45.814Z,122.2
2023-02-15T09:52:50.984Z,125
2023-02-15T09:54:53.001Z,122
2023-02-15T09:56:55.036Z,124.3
2023-02-15T09:58:57.058Z,118.7
2023-02-15T10:00:59.002Z,119.8
2023-02-15T10:05:03.032Z,116.6
2023-02-15T10:09:10.037Z,117
2023-02-15T10:11:11.994Z,120.7
2023-02-15T10:13:13.922Z,116.8
2023-02-15T10:15:15.845Z,112.1
2023-02-15T10:19:19.711Z,113.3
2023-02-15T10:21:24.697Z,112.8
2023-02-15T10:23:26.618Z,109.6
2023-02-15T10:27:30.516Z,109.9
2023-02-15T10:29:32.419Z,106.4
2023-02-15T10:31:34.487Z,105.7
2023-02-15T10:35:41.300Z,103.2
2023-02-15T10:37:43.247Z,99.7
2023-02-15T10:39:45.197Z,96.7
2023-02-15T10:42:01.850Z,84.3
2023-02-15T10:50:12.682Z,77.9
2023-02-15T10:58:20.479Z,66.4
2023-02-15T11:00:22.421Z,66.8
2023-02-15T11:02:27.461Z,54.4
2023-02-15T11:04:29.408Z,52.6
2023-02-15T11:06:31.371Z,45.9
2023-02-15T11:08:33.326Z,43.4
2023-02-15T11:10:35.308Z,38.6
2023-02-15T11:12:37.351Z,36.5
2023-02-15T11:14:39.243Z,35.7
2023-02-15T11:16:44.258Z,33.4
2023-02-15T11:18:46.232Z,30.8
2023-02-15T11:22:50.201Z,32
2023-02-15T11:26:54.157Z,29.8
2023-02-15T11:28:56.184Z,31
2023-02-15T11:35:05.135Z,26.4
2023-02-15T11:40:11.602Z,24.1
2023-02-15T11:42:13.599Z,24.6
2023-02-15T11:46:20.694Z,25.4
2023-02-15T11:48:22.605Z,23.6
2023-02-15T11:50:24.587Z,20.8
2023-02-15T11:52:26.563Z,24.4
2023-02-15T11:54:28.549Z,24.4
2023-02-15T11:56:30.543Z,23.7
2023-02-15T11:59:13.295Z,23.3
2023-02-15T12:00:37.601Z,22.4
2023-02-15T12:02:39.619Z,22.1
2023-02-15T12:04:41.541Z,22.9
2023-02-15T12:06:43.538Z,24.9
2023-02-15T12:12:52.584Z,24.3
2023-02-15T12:14:54.577Z,22.9
2023-02-15T12:16:56.546Z,23.5
2023-02-15T12:18:58.564Z,23.9
2023-02-15T12:21:00.676Z,26.1
2023-02-15T12:23:02.517Z,26.7
2023-02-15T12:25:04.500Z,22.4
2023-02-15T12:27:09.522Z,25.3
2023-02-15T12:29:11.504Z,22.8
2023-02-15T12:31:13.564Z,21.9
2023-02-15T12:32:16.160Z,22.8
2023-02-15T12:36:19.992Z,23.1
2023-02-15T12:42:29.044Z,24.7
2023-02-15T12:44:31.001Z,21.2
2023-02-15T12:48:40.664Z,24.1
2023-02-15T12:50:36.948Z,23.3
2023-02-15T12:52:38.945Z,21.7
2023-02-15T12:54:44.006Z,23
2023-02-15T12:56:45.998Z,22.5
2023-02-15T12:58:47.965Z,23.6
2023-02-15T13:00:49.971Z,21.7
2023-02-15T13:02:51.960Z,25
2023-02-15T13:04:53.935Z,23.1
2023-02-15T13:06:55.934Z,22.4
2023-02-15T13:09:00.980Z,25.6
2023-02-15T13:11:03.303Z,23.7
2023-02-15T13:13:04.920Z,21.4
2023-02-15T13:15:06.905Z,22.7
2023-02-15T13:17:09.041Z,20.2
2023-02-15T13:19:10.912Z,25.5
2023-02-15T13:21:12.856Z,24.2
2023-02-15T13:23:17.915Z,24.3
2023-02-15T13:25:19.903Z,24.1
2023-02-15T13:27:21.881Z,21.2
2023-02-15T13:28:24.425Z,21.9
2023-02-15T13:32:28.478Z,25.2
2023-02-15T13:34:30.383Z,21.6
2023-02-15T13:36:35.436Z,23.7
2023-02-15T13:38:37.418Z,22.3
2023-02-15T13:40:39.446Z,23.9
2023-02-15T13:42:41.425Z,24.8
2023-02-15T13:44:43.384Z,24.3
2023-02-15T13:46:45.413Z,22.4
2023-02-15T13:48:51.169Z,22.1
2023-02-15T13:50:52.464Z,25.3
2023-02-15T13:59:00.421Z,22
2023-02-15T14:01:02.765Z,23
2023-02-15T14:05:09.454Z,23.1
2023-02-15T14:07:11.480Z,26
2023-02-15T14:09:13.494Z,22.1
2023-02-15T14:11:15.450Z,21.4
2023-02-15T14:15:19.413Z,26
2023-02-15T14:17:21.444Z,24.1
2023-02-15T14:19:26.468Z,26.2
2023-02-15T14:21:28.449Z,25.6
2023-02-15T14:23:30.444Z,25.6
2023-02-15T14:32:02.454Z,24.8
2023-02-15T14:34:04.331Z,24.4
2023-02-15T14:40:10.323Z,23.9
2023-02-15T14:42:12.297Z,24.2
2023-02-15T14:44:14.310Z,27.7
2023-02-15T14:46:19.589Z,27
2023-02-15T14:48:21.377Z,28.8
2023-02-15T14:50:23.368Z,27
2023-02-15T14:52:25.367Z,26
2023-02-15T14:54:27.365Z,27.8
2023-02-15T14:56:39.126Z,28.6
2023-02-15T14:58:31.329Z,27.8
2023-02-15T15:02:39.907Z,28.6
2023-02-15T15:04:41.871Z,27.6
2023-02-15T15:06:43.856Z,26.8
2023-02-15T15:08:45.861Z,31.1
2023-02-15T15:10:47.869Z,31.9
2023-02-15T15:12:49.858Z,29.3
2023-02-15T15:18:58.904Z,29.9
2023-02-15T15:20:01.453Z,30.1
2023-02-15T15:34:18.486Z,28.6
2023-02-15T15:36:20.485Z,31.9
2023-02-15T15:38:22.488Z,30.2
2023-02-15T15:40:24.480Z,34.9
2023-02-15T15:42:29.536Z,33.5
2023-02-15T15:44:31.545Z,32.3
2023-02-15T15:46:33.602Z,31.1
2023-02-15T15:48:35.529Z,31.8
2023-02-15T15:52:39.583Z,31.7
2023-02-15T15:54:41.544Z,29.8
2023-02-15T15:56:46.611Z,29.7
2023-02-15T16:00:50.637Z,33.7
2023-02-15T16:04:54.609Z,30.5
2023-02-15T16:06:56.590Z,30.2
2023-02-15T16:11:03.663Z,32.8
2023-02-15T16:13:05.639Z,32.9
2023-02-15T16:15:07.633Z,33.7
2023-02-15T16:16:10.179Z,32.3
2023-02-15T16:18:12.161Z,31.5
2023-02-15T16:20:14.135Z,33
2023-02-15T16:22:16.137Z,32.1
2023-02-15T16:24:21.204Z,33.7
2023-02-15T16:26:23.219Z,35.2
2023-02-15T16:28:25.213Z,34.4
2023-02-15T16:30:27.291Z,34.9
2023-02-15T16:32:29.236Z,34.9
2023-02-15T16:34:31.199Z,37.2
2023-02-15T16:36:33.176Z,38.9
2023-02-15T16:38:38.236Z,36.2
2023-02-15T16:40:40.222Z,38.8
2023-02-15T16:42:42.230Z,33.1
2023-02-15T16:44:44.214Z,33.6
2023-02-15T16:46:46.309Z,33.7
2023-02-15T16:48:48.193Z,33.5
2023-02-15T16:50:50.219Z,36.8
2023-02-15T16:54:57.250Z,38
2023-02-15T16:56:59.260Z,34.2
2023-02-15T16:59:01.259Z,34.1
2023-02-15T17:01:03.746Z,37.7
2023-02-15T17:03:05.216Z,37.6
2023-02-15T17:05:07.230Z,39.4
2023-02-15T17:07:12.259Z,36.7
2023-02-15T17:09:14.239Z,39.7
2023-02-15T17:11:16.230Z,41
2023-02-15T17:12:18.785Z,36.7
2023-02-15T17:16:22.787Z,36.9
2023-02-15T17:18:24.731Z,36.5
2023-02-15T17:20:31.150Z,37.2
2023-02-15T17:22:31.782Z,37
2023-02-15T17:24:33.755Z,39.5
2023-02-15T17:26:35.737Z,39.8
2023-02-15T17:28:37.795Z,41.5
2023-02-15T17:30:39.727Z,43
2023-02-15T17:32:41.711Z,43
2023-02-15T17:34:46.751Z,42.9
2023-02-15T17:36:48.748Z,40.7
2023-02-15T17:38:50.720Z,43.3
2023-02-15T17:40:52.704Z,43.1
2023-02-15T17:42:54.678Z,39.1
2023-02-15T17:44:56.664Z,44
2023-02-15T17:46:58.646Z,47.2
2023-02-15T17:49:03.708Z,44.1
2023-02-15T17:51:05.922Z,45.9
2023-02-15T17:57:11.637Z,44.1
2023-02-15T17:59:13.639Z,46.3
2023-02-15T18:01:15.625Z,40.9
2023-02-15T18:03:20.641Z,43.9
2023-02-15T18:05:22.614Z,42.1
2023-02-15T18:07:24.586Z,44.4
2023-02-15T18:11:49.128Z,43.3
2023-02-15T18:13:51.096Z,41.1
2023-02-15T18:17:58.134Z,45.5
2023-02-15T18:24:04.029Z,44.4
2023-02-15T18:30:13.074Z,44.7
2023-02-15T18:32:15.037Z,44.6
2023-02-15T18:42:24.826Z,50.9
2023-02-15T18:44:29.823Z,53.6
2023-02-15T18:46:31.799Z,58
2023-02-15T18:48:33.767Z,53.6
2023-02-15T18:52:37.678Z,48.2
2023-02-15T18:54:39.658Z,44.1
2023-02-15T18:56:41.620Z,41.4
2023-02-15T18:58:47.122Z,46
2023-02-15T19:00:48.647Z,43.5
2023-02-15T19:02:50.555Z,44.8
2023-02-15T19:03:53.090Z,46
2023-02-15T19:05:55.025Z,43.3
2023-02-15T19:09:58.957Z,48.4
2023-02-15T19:12:03.968Z,50.3
2023-02-15T19:14:05.910Z,45.2
2023-02-15T19:16:07.886Z,45.7
2023-02-15T19:18:09.851Z,41.8
2023-02-15T19:20:11.821Z,38.9
2023-02-15T19:22:13.764Z,42.8
2023-02-15T19:24:15.715Z,55.4
2023-02-15T19:26:20.740Z,52.1
2023-02-15T19:28:22.691Z,54.4
2023-02-15T19:30:24.730Z,60.7
2023-02-15T19:32:26.587Z,45.6
2023-02-15T19:34:28.519Z,43
2023-02-15T19:36:30.480Z,45.6
2023-02-15T19:38:32.455Z,44.4
2023-02-15T19:40:37.461Z,41
2023-02-15T19:42:39.398Z,41.5
2023-02-15T19:44:41.338Z,40.3
2023-02-15T19:46:43.393Z,42.6
2023-02-15T19:48:45.265Z,39.8
2023-02-15T19:50:47.228Z,39.4
2023-02-15T19:52:49.175Z,41.3
2023-02-15T19:54:54.203Z,41.3
2023-02-15T19:56:56.147Z,38.8
2023-02-15T19:58:58.116Z,39.5
2023-02-15T20:00:12.350Z,39
2023-02-15T20:02:02.590Z,40.2
2023-02-15T20:04:04.532Z,36.4
2023-02-15T20:06:06.507Z,37.5
2023-02-15T20:08:11.504Z,39.1
2023-02-15T20:10:13.471Z,36.4
2023-02-15T20:12:15.439Z,38.8
2023-02-15T20:14:17.389Z,41.8
2023-02-15T20:16:19.428Z,40.4
2023-02-15T20:18:22.740Z,37.9
2023-02-15T20:20:23.274Z,38.2
2023-02-15T20:22:28.385Z,40
2023-02-15T20:24:30.285Z,38.9
2023-02-15T20:26:32.269Z,41
2023-02-15T20:32:38.242Z,38.4
2023-02-15T20:34:40.127Z,41.4
2023-02-15T20:36:45.159Z,41
2023-02-15T20:38:47.110Z,40.4
2023-02-15T20:40:49.054Z,41.1
2023-02-15T20:42:51.041Z,42.1
2023-02-15T20:44:53.004Z,42.8
2023-02-15T20:46:55.279Z,41.7
2023-02-15T20:48:56.905Z,42.3
2023-02-15T20:51:02.194Z,40.7
2023-02-15T20:53:03.890Z,37.6
2023-02-15T20:55:07.375Z,41.3
2023-02-15T21:02:15.774Z,43.8
2023-02-15T21:04:20.763Z,43.1
2023-02-15T21:08:24.693Z,41.2
2023-02-15T21:10:26.648Z,42.5
2023-02-15T21:16:32.654Z,40.1
2023-02-15T21:18:37.575Z,40.3
2023-02-15T21:20:39.549Z,41.6
2023-02-15T21:26:45.433Z,37.4
2023-02-15T21:28:47.400Z,40.8
2023-02-15T21:34:56.310Z,41.6
2023-02-15T21:36:58.293Z,38.9
2023-02-15T21:43:04.172Z,39.9
2023-02-15T21:45:06.159Z,43.3
2023-02-15T21:47:11.177Z,40.1
2023-02-15T21:49:13.110Z,39
2023-02-15T21:51:15.101Z,37.4
2023-02-15T21:53:31.739Z,40.1
2023-02-15T21:55:54.355Z,38.5
2023-02-15T21:57:35.643Z,35.9
2023-02-15T21:59:40.668Z,38.3
2023-02-15T22:01:42.663Z,37.7
2023-02-15T22:03:44.598Z,40.5
2023-02-15T22:05:46.574Z,36.3
2023-02-15T22:07:48.530Z,36.7
2023-02-15T22:09:50.490Z,36.5
2023-02-15T22:11:52.452Z,38.8
2023-02-15T22:13:57.474Z,39.9
2023-02-15T22:15:59.471Z,36.3
2023-02-15T22:20:03.369Z,39.6
2023-02-15T22:22:05.320Z,36.6
2023-02-15T22:30:16.254Z,38.6
2023-02-15T22:40:26.029Z,37.5
2023-02-15T22:46:34.948Z,37.8
2023-02-15T22:47:37.476Z,39.9
2023-02-15T22:49:39.407Z,38.5
2023-02-15T22:51:41.393Z,36.4
2023-02-15T22:53:43.329Z,37.5
2023-02-15T22:55:48.350Z,39.2
2023-02-15T22:57:50.327Z,37.2
2023-02-15T22:59:52.268Z,37.6
2023-02-15T23:03:56.247Z,38.8
2023-02-15T23:05:58.185Z,38.9
2023-02-15T23:10:05.154Z,38.9
2023-02-15T23:14:09.068Z,38.3
2023-02-15T23:16:11.142Z,41.2
2023-02-15T23:20:14.946Z,41.2
2023-02-15T23:26:23.890Z,44.1
2023-02-15T23:28:25.886Z,41.6
2023-02-15T23:30:27.977Z,42
2023-02-15T23:32:29.954Z,40.3
2023-02-15T23:38:38.847Z,41.4
2023-02-15T23:40:40.823Z,42
2023-02-15T23:42:42.775Z,39.9
2023-02-15T23:43:45.262Z,43.4
2023-02-15T23:45:47.340Z,42.9
2023-02-15T23:51:56.265Z,44.5
2023-02-15T23:53:58.218Z,41.6
2023-02-15T23:56:00.176Z,42.7
